createdAt,value
2018-07-23T00:01:44.387Z,18.12
2018-07-23T00:04:14.189Z,18.11
2018-07-23T00:06:43.394Z,18.10
2018-07-23T00:09:12.529Z,18.10
2018-07-23T00:11:42.903Z,18.05
2018-07-23T00:14:12.164Z,18.02
2018-07-23T00:16:42.288Z,18.00
2018-07-23T00:19:13.384Z,18.00
2018-07-23T00:21:44.153Z,17.96
2018-07-23T00:24:14.836Z,17.93
2018-07-23T00:26:44.221Z,17.96
2018-07-23T00:29:13.417Z,17.97
2018-07-23T00:31:43.764Z,17.90
2018-07-23T00:34:13.801Z,17.88
2018-07-23T00:36:43.713Z,17.84
2018-07-23T00:39:13.820Z,17.80
2018-07-23T00:41:43.939Z,17.80
2018-07-23T00:44:16.320Z,17.76
2018-07-23T00:46:47.152Z,17.78
2018-07-23T00:49:22.386Z,17.80
2018-07-23T00:51:52.896Z,17.74
2018-07-23T00:54:24.156Z,17.65
2018-07-23T00:56:54.337Z,17.64
2018-07-23T00:59:25.454Z,17.62
2018-07-23T01:01:57.084Z,17.57
2018-07-23T01:04:33.809Z,17.58
2018-07-23T01:07:05.820Z,17.59
2018-07-23T01:11:05.660Z,17.61
2018-07-23T01:13:37.733Z,17.57
2018-07-23T01:16:09.677Z,17.53
2018-07-23T01:18:41.553Z,17.51
2018-07-23T01:21:16.890Z,17.49
2018-07-23T01:23:46.462Z,17.49
2018-07-23T01:26:18.090Z,17.44
2018-07-23T01:28:54.354Z,17.44
2018-07-23T01:31:28.484Z,17.40
2018-07-23T01:33:58.648Z,17.33
2018-07-23T01:36:29.887Z,17.30
2018-07-23T01:39:01.084Z,17.31
2018-07-23T01:41:34.084Z,17.34
2018-07-23T01:44:08.645Z,17.28
2018-07-23T01:46:41.021Z,17.25
2018-07-23T01:49:13.464Z,17.27
2018-07-23T01:51:43.892Z,17.20
2018-07-23T01:54:14.856Z,17.12
2018-07-23T01:56:49.344Z,17.07
2018-07-23T01:59:22.776Z,17.06
2018-07-23T02:01:52.256Z,17.01
2018-07-23T02:04:25.782Z,17.07
2018-07-23T02:06:57.746Z,17.08
2018-07-23T02:09:29.260Z,17.05
2018-07-23T02:12:03.839Z,17.04
2018-07-23T02:14:33.300Z,16.99
2018-07-23T02:17:03.117Z,16.97
2018-07-23T02:19:34.966Z,16.98
2018-07-23T02:22:05.631Z,16.92
2018-07-23T02:24:35.527Z,16.87
2018-07-23T02:27:05.952Z,16.86
2018-07-23T02:29:36.402Z,16.84
2018-07-23T02:32:12.621Z,16.81
2018-07-23T02:34:42.957Z,16.81
2018-07-23T02:37:12.891Z,16.81
2018-07-23T02:39:43.660Z,16.81
2018-07-23T02:42:13.071Z,16.85
2018-07-23T02:44:43.619Z,16.84
2018-07-23T02:47:15.664Z,16.78
2018-07-23T02:49:46.226Z,16.78
2018-07-23T02:52:18.133Z,16.75
2018-07-23T02:54:50.794Z,16.70
2018-07-23T02:57:20.419Z,16.69
2018-07-23T02:59:50.133Z,16.67
2018-07-23T03:02:24.921Z,16.64
2018-07-23T03:04:59.986Z,16.60
2018-07-23T03:07:30.853Z,16.58
2018-07-23T03:10:02.840Z,16.58
2018-07-23T03:12:35.220Z,16.48
2018-07-23T03:15:07.380Z,16.53
2018-07-23T03:17:38.848Z,16.53
2018-07-23T03:20:09.372Z,16.53
2018-07-23T03:22:41.625Z,16.49
2018-07-23T03:25:12.898Z,16.46
2018-07-23T03:27:45.272Z,16.39
2018-07-23T03:30:16.345Z,16.38
2018-07-23T03:32:47.921Z,16.29
2018-07-23T03:35:18.185Z,16.25
2018-07-23T03:37:47.999Z,16.22
2018-07-23T03:40:17.795Z,16.24
2018-07-23T03:42:47.546Z,16.23
2018-07-23T03:45:18.871Z,16.18
2018-07-23T03:47:53.382Z,16.21
2018-07-23T03:50:24.836Z,16.18
2018-07-23T03:52:55.804Z,16.17
2018-07-23T03:55:26.200Z,16.16
2018-07-23T03:57:58.365Z,16.18
2018-07-23T04:00:28.181Z,16.19
2018-07-23T04:03:01.357Z,16.17
2018-07-23T04:05:36.713Z,16.16
2018-07-23T04:08:10.261Z,16.13
2018-07-23T04:10:41.121Z,16.12
2018-07-23T04:13:13.172Z,16.18
2018-07-23T04:15:44.548Z,16.23
2018-07-23T04:18:17.555Z,16.29
2018-07-23T04:20:53.614Z,16.32
2018-07-23T04:23:23.047Z,16.28
2018-07-23T04:25:58.309Z,16.32
2018-07-23T04:28:30.534Z,16.39
2018-07-23T04:31:02.466Z,16.39
2018-07-23T04:33:33.417Z,16.47
2018-07-23T04:36:11.453Z,16.48
2018-07-23T04:38:43.088Z,16.54
2018-07-23T04:41:14.908Z,16.56
2018-07-23T04:43:46.101Z,16.66
2018-07-23T04:46:19.297Z,16.72
2018-07-23T04:48:53.188Z,16.75
2018-07-23T04:51:24.005Z,16.82
2018-07-23T04:53:58.100Z,16.92
2018-07-23T04:56:28.261Z,16.97
2018-07-23T04:58:59.720Z,17.04
2018-07-23T05:01:31.402Z,17.17
2018-07-23T05:04:06.300Z,17.29
2018-07-23T05:06:37.037Z,17.42
2018-07-23T05:09:13.254Z,17.54
2018-07-23T05:11:42.968Z,17.59
2018-07-23T05:14:18.863Z,17.71
2018-07-23T05:16:55.864Z,17.83
2018-07-23T05:19:26.625Z,17.99
2018-07-23T05:21:57.164Z,18.10
2018-07-23T05:24:27.599Z,18.26
2018-07-23T05:26:59.816Z,18.38
2018-07-23T05:29:35.836Z,18.50
2018-07-23T05:32:12.133Z,18.58
2018-07-23T05:34:48.592Z,18.70
2018-07-23T05:37:24.397Z,18.85
2018-07-23T05:39:57.968Z,18.98
2018-07-23T05:42:36.654Z,19.14
2018-07-23T05:45:07.081Z,19.30
2018-07-23T05:47:41.885Z,19.45
2018-07-23T05:50:13.692Z,19.60
2018-07-23T05:52:43.810Z,19.66
2018-07-23T05:55:13.211Z,19.70
2018-07-23T05:57:47.179Z,19.84
2018-07-23T06:00:18.570Z,19.95
2018-07-23T06:02:49.004Z,20.18
2018-07-23T06:05:18.318Z,20.31
2018-07-23T06:07:47.581Z,20.53
2018-07-23T06:10:21.205Z,20.71
2018-07-23T06:12:53.376Z,20.90
2018-07-23T06:15:23.902Z,20.98
2018-07-23T06:17:56.300Z,21.10
2018-07-23T06:20:28.140Z,21.26
2018-07-23T06:22:57.949Z,21.43
2018-07-23T06:25:28.042Z,21.64
2018-07-23T06:28:05.370Z,21.75
2018-07-23T06:30:37.262Z,21.94
2018-07-23T06:33:11.156Z,22.11
2018-07-23T06:35:47.193Z,22.31
2018-07-23T06:38:18.626Z,22.28
2018-07-23T06:40:51.198Z,22.71
2018-07-23T06:43:22.504Z,22.77
2018-07-23T06:45:55.992Z,22.76
2018-07-23T06:48:25.540Z,22.52
2018-07-23T06:50:54.877Z,22.86
2018-07-23T06:53:25.597Z,23.49
2018-07-23T06:55:55.213Z,23.94
2018-07-23T06:58:25.330Z,24.07
2018-07-23T07:00:55.893Z,24.38
2018-07-23T07:03:27.270Z,24.31
2018-07-23T07:05:57.844Z,23.70
2018-07-23T07:08:29.799Z,23.55
2018-07-23T07:11:00.648Z,23.28
2018-07-23T07:13:32.271Z,23.80
2018-07-23T07:16:01.457Z,23.42
2018-07-23T07:18:31.797Z,23.15
2018-07-23T07:21:04.636Z,23.93
2018-07-23T07:23:35.125Z,24.63
2018-07-23T07:26:08.395Z,24.74
2018-07-23T07:28:39.342Z,24.51
2018-07-23T07:31:10.328Z,26.01
2018-07-23T07:33:39.560Z,27.46
2018-07-23T07:36:14.095Z,28.96
2018-07-23T07:38:45.012Z,30.80
2018-07-23T07:41:16.722Z,32.37
2018-07-23T07:43:47.641Z,34.05
2018-07-23T07:46:18.368Z,35.19
2018-07-23T07:48:51.992Z,35.44
2018-07-23T07:51:24.484Z,35.79
2018-07-23T07:53:56.256Z,34.35
2018-07-23T07:56:36.204Z,34.08
2018-07-23T08:04:50.536Z,35.73
2018-07-23T08:12:50.204Z,33.72
2018-07-23T08:15:31.353Z,33.86
2018-07-23T08:18:10.388Z,32.78
2018-07-23T08:20:47.982Z,35.99
2018-07-23T08:26:16.765Z,36.06
2018-07-23T08:28:56.185Z,38.31
2018-07-23T08:31:31.317Z,38.09
2018-07-23T08:34:01.468Z,38.10
2018-07-23T08:36:42.216Z,38.32
2018-07-23T08:39:17.495Z,38.58
2018-07-23T08:41:53.332Z,35.09
2018-07-23T08:44:25.153Z,34.07
2018-07-23T08:46:56.869Z,36.38
2018-07-23T08:49:27.595Z,37.86
2018-07-23T08:51:59.884Z,38.84
2018-07-23T08:54:29.012Z,38.91
2018-07-23T08:56:58.152Z,39.08
2018-07-23T08:59:27.640Z,39.46
2018-07-23T09:01:56.804Z,39.72
2018-07-23T09:04:27.284Z,38.35
2018-07-23T09:06:57.021Z,35.39
2018-07-23T09:09:26.357Z,37.02
2018-07-23T09:11:55.728Z,40.09
2018-07-23T09:14:26.073Z,40.88
2018-07-23T09:16:55.276Z,41.51
2018-07-23T09:19:24.432Z,41.25
2018-07-23T09:21:54.124Z,40.41
2018-07-23T09:24:23.687Z,40.02
2018-07-23T09:26:53.096Z,39.60
2018-07-23T09:29:23.956Z,39.77
2018-07-23T09:31:55.324Z,40.25
2018-07-23T09:34:25.226Z,39.28
2018-07-23T09:36:56.288Z,39.59
2018-07-23T09:39:28.671Z,38.29
2018-07-23T09:41:57.579Z,38.05
2018-07-23T09:44:30.279Z,37.72
2018-07-23T09:47:02.993Z,38.21
2018-07-23T09:49:34.312Z,36.69
2018-07-23T09:52:07.032Z,38.46
2018-07-23T09:54:37.769Z,36.89
2018-07-23T09:57:07.093Z,38.38
2018-07-23T09:59:37.709Z,39.85
2018-07-23T10:02:09.768Z,38.79
2018-07-23T10:04:39.785Z,37.81
2018-07-23T10:07:10.300Z,36.46
2018-07-23T10:09:40.290Z,37.63
2018-07-23T10:12:11.152Z,38.03
2018-07-23T10:14:42.636Z,38.90
2018-07-23T10:17:15.792Z,41.41
2018-07-23T10:19:47.465Z,38.97
2018-07-23T10:22:17.217Z,38.37
2018-07-23T10:24:47.560Z,35.52
2018-07-23T10:27:17.636Z,34.33
2018-07-23T10:29:48.748Z,36.20
2018-07-23T10:32:21.061Z,37.50
2018-07-23T10:34:54.092Z,39.44
2018-07-23T10:37:27.581Z,40.20
2018-07-23T10:39:59.085Z,40.64
2018-07-23T10:42:28.946Z,37.08
2018-07-23T10:45:01.364Z,39.03
2018-07-23T10:47:33.646Z,39.14
2018-07-23T10:50:03.350Z,38.22
2018-07-23T10:52:34.089Z,40.21
2018-07-23T10:55:08.480Z,41.45
2018-07-23T10:57:37.666Z,42.56
2018-07-23T11:00:08.740Z,42.11
2018-07-23T11:02:42.631Z,41.08
2018-07-23T11:05:18.061Z,39.22
2018-07-23T11:07:48.533Z,36.61
2018-07-23T11:10:25.584Z,35.29
2018-07-23T11:13:08.615Z,35.19
2018-07-23T11:15:40.217Z,34.69
2018-07-23T11:18:10.502Z,34.15
2018-07-23T11:20:43.140Z,35.67
2018-07-23T11:23:14.749Z,36.95
2018-07-23T11:25:46.802Z,37.35
2018-07-23T11:28:19.276Z,35.10
2018-07-23T11:30:50.353Z,34.22
2018-07-23T11:33:22.376Z,36.21
2018-07-23T11:35:55.330Z,37.52
2018-07-23T11:38:26.597Z,39.28
2018-07-23T11:40:55.802Z,37.55
2018-07-23T11:43:25.996Z,37.91
2018-07-23T11:47:25.936Z,39.00
2018-07-23T11:49:56.268Z,38.77
2018-07-23T11:52:26.340Z,38.70
2018-07-23T11:54:57.452Z,39.84
2018-07-23T11:57:31.340Z,40.89
2018-07-23T12:00:07.684Z,40.70
2018-07-23T12:02:38.025Z,41.03
2018-07-23T12:05:08.284Z,40.36
2018-07-23T12:07:39.575Z,40.11
2018-07-23T12:10:12.800Z,40.44
2018-07-23T12:12:45.272Z,40.17
2018-07-23T12:15:21.377Z,40.21
2018-07-23T12:17:52.168Z,39.57
2018-07-23T12:20:22.109Z,39.19
2018-07-23T12:22:53.622Z,39.20
2018-07-23T12:25:25.029Z,36.80
2018-07-23T12:27:59.089Z,38.79
2018-07-23T12:30:30.621Z,38.14
2018-07-23T12:33:02.313Z,36.16
2018-07-23T12:35:33.757Z,36.89
2018-07-23T12:38:04.376Z,36.58
2018-07-23T12:40:37.876Z,37.56
2018-07-23T12:43:07.076Z,38.04
2018-07-23T12:45:42.514Z,38.33
2018-07-23T12:48:16.551Z,39.11
2018-07-23T12:50:47.881Z,39.07
2018-07-23T12:53:18.406Z,37.32
2018-07-23T12:55:52.000Z,37.47
2018-07-23T12:58:23.360Z,36.90
2018-07-23T13:00:58.772Z,38.41
2018-07-23T13:03:33.007Z,38.37
2018-07-23T13:06:04.966Z,39.42
2018-07-23T13:08:34.787Z,37.69
2018-07-23T13:11:05.849Z,37.59
2018-07-23T13:13:35.661Z,38.16
2018-07-23T13:16:07.357Z,38.53
2018-07-23T13:18:38.744Z,39.52
2018-07-23T13:21:09.476Z,38.75
2018-07-23T13:23:42.257Z,39.64
2018-07-23T13:26:16.274Z,39.94
2018-07-23T13:28:46.904Z,40.33
2018-07-23T13:31:16.302Z,38.46
2018-07-23T13:33:47.041Z,38.64
2018-07-23T13:36:20.846Z,39.94
2018-07-23T13:38:52.782Z,38.55
2018-07-23T13:41:24.383Z,36.50
2018-07-23T13:43:55.924Z,35.95
2018-07-23T13:46:26.247Z,34.75
2018-07-23T13:48:57.708Z,34.73
2018-07-23T13:51:27.207Z,36.14
2018-07-23T13:53:59.597Z,36.29
2018-07-23T13:56:29.721Z,36.04
2018-07-23T13:59:00.421Z,36.85
2018-07-23T14:01:30.797Z,38.40
2018-07-23T14:04:00.951Z,37.65
2018-07-23T14:06:31.700Z,37.79
2018-07-23T14:09:03.158Z,37.20
2018-07-23T14:11:34.898Z,36.56
2018-07-23T14:14:06.170Z,36.42
2018-07-23T14:16:38.996Z,34.75
2018-07-23T14:19:12.654Z,36.06
2018-07-23T14:21:43.794Z,35.44
2018-07-23T14:24:14.099Z,34.96
2018-07-23T14:26:45.689Z,34.59
2018-07-23T14:29:19.532Z,33.79
2018-07-23T14:31:53.500Z,33.25
2018-07-23T14:34:24.986Z,33.55
2018-07-23T14:36:56.149Z,34.15
2018-07-23T14:39:28.818Z,35.71
2018-07-23T14:41:58.164Z,35.86
2018-07-23T14:44:28.600Z,35.74
2018-07-23T14:47:02.009Z,34.21
2018-07-23T14:49:38.076Z,33.58
2018-07-23T14:52:07.610Z,33.32
2018-07-23T14:54:42.300Z,33.05
2018-07-23T14:57:14.086Z,32.42
2018-07-23T14:59:44.261Z,31.90
2018-07-23T15:02:18.894Z,32.40
2018-07-23T15:04:48.990Z,32.51
2018-07-23T15:07:21.081Z,32.20
2018-07-23T15:09:52.589Z,32.05
2018-07-23T15:12:23.689Z,31.86
2018-07-23T15:14:53.563Z,31.66
2018-07-23T15:17:24.260Z,31.43
2018-07-23T15:19:58.536Z,31.49
2018-07-23T15:22:29.133Z,31.50
2018-07-23T15:24:58.964Z,31.45
2018-07-23T15:27:31.008Z,31.40
2018-07-23T15:30:06.200Z,31.28
2018-07-23T15:32:37.017Z,31.05
2018-07-23T15:35:07.286Z,30.80
2018-07-23T15:37:39.864Z,30.66
2018-07-23T15:40:10.653Z,30.44
2018-07-23T15:42:41.597Z,30.34
2018-07-23T15:45:14.655Z,30.38
2018-07-23T15:47:45.832Z,30.25
2018-07-23T15:50:16.469Z,30.38
2018-07-23T15:52:46.584Z,30.49
2018-07-23T15:55:16.396Z,30.53
2018-07-23T15:57:47.178Z,30.52
2018-07-23T16:00:19.851Z,30.24
2018-07-23T16:05:25.640Z,29.66
2018-07-23T16:08:02.054Z,29.32
2018-07-23T16:10:32.709Z,29.18
2018-07-23T16:13:03.851Z,28.80
2018-07-23T16:15:34.685Z,28.50
2018-07-23T16:18:08.261Z,28.13
2018-07-23T16:20:40.453Z,27.78
2018-07-23T16:23:13.314Z,27.81
2018-07-23T16:25:44.352Z,27.73
2018-07-23T16:28:16.928Z,27.53
2018-07-23T16:30:47.684Z,27.44
2018-07-23T16:33:17.202Z,27.37
2018-07-23T16:35:49.048Z,27.30
2018-07-23T16:38:20.589Z,27.36
2018-07-23T16:40:50.804Z,27.54
2018-07-23T16:43:21.364Z,27.59
2018-07-23T16:45:53.416Z,27.43
2018-07-23T16:48:33.688Z,27.22
2018-07-23T16:51:08.540Z,27.24
2018-07-23T16:53:45.742Z,27.08
2018-07-23T16:56:17.977Z,26.96
2018-07-23T16:58:49.336Z,26.76
2018-07-23T17:01:22.528Z,26.75
2018-07-23T17:04:01.596Z,26.69
2018-07-23T17:06:48.721Z,26.62
2018-07-23T17:09:38.280Z,26.40
2018-07-23T17:12:18.749Z,26.41
2018-07-23T17:15:09.290Z,26.38
2018-07-23T17:17:57.739Z,26.35
2018-07-23T17:23:13.069Z,26.32
2018-07-23T17:25:45.552Z,26.35
2018-07-23T17:28:32.972Z,26.47
2018-07-23T17:31:14.013Z,26.53
2018-07-23T17:36:26.353Z,26.47
2018-07-23T17:38:57.016Z,26.42
2018-07-23T17:41:28.265Z,26.46
2018-07-23T17:44:00.436Z,26.54
2018-07-23T17:46:31.540Z,26.48
2018-07-23T17:49:03.474Z,26.45
2018-07-23T17:51:34.621Z,26.23
2018-07-23T17:54:04.641Z,26.31
2018-07-23T17:56:34.400Z,26.30
2018-07-23T17:59:03.485Z,26.42
2018-07-23T18:01:32.640Z,26.40
2018-07-23T18:04:01.761Z,26.46
2018-07-23T18:06:32.060Z,26.44
2018-07-23T18:09:01.118Z,26.33
2018-07-23T18:11:29.996Z,26.24
2018-07-23T18:13:59.605Z,26.02
2018-07-23T18:16:28.793Z,26.03
2018-07-23T18:18:58.856Z,26.02
2018-07-23T18:21:28.735Z,25.98
2018-07-23T18:23:58.599Z,25.90
2018-07-23T18:26:28.124Z,25.85
2018-07-23T18:28:58.060Z,25.75
2018-07-23T18:31:28.388Z,25.66
2018-07-23T18:33:59.280Z,25.46
2018-07-23T18:36:28.504Z,25.35
2018-07-23T18:38:59.373Z,25.32
2018-07-23T18:41:29.592Z,25.13
2018-07-23T18:43:58.649Z,24.94
2018-07-23T18:46:29.517Z,24.80
2018-07-23T18:49:27.166Z,24.68
2018-07-23T18:51:56.955Z,24.54
2018-07-23T18:54:28.917Z,24.41
2018-07-23T18:57:04.976Z,24.35
2018-07-23T18:59:37.902Z,24.22
2018-07-23T19:02:11.069Z,24.14
2018-07-23T19:04:44.559Z,23.93
2018-07-23T19:07:15.028Z,23.90
2018-07-23T19:09:45.449Z,23.87
2018-07-23T19:12:17.502Z,23.83
2018-07-23T19:14:48.245Z,23.76
2018-07-23T19:17:19.296Z,23.73
2018-07-23T19:19:49.932Z,23.70
2018-07-23T19:22:20.152Z,23.60
2018-07-23T19:24:51.184Z,23.44
2018-07-23T19:27:20.483Z,23.38
2018-07-23T19:29:49.601Z,23.30
2018-07-23T19:32:21.616Z,23.24
2018-07-23T19:34:51.661Z,23.18
2018-07-23T19:37:25.318Z,23.06
2018-07-23T19:39:57.037Z,22.92
2018-07-23T19:42:26.922Z,22.85
2018-07-23T19:45:02.062Z,22.65
2018-07-23T19:47:32.355Z,22.61
2018-07-23T19:50:02.676Z,22.56
2018-07-23T19:52:34.750Z,22.50
2018-07-23T19:55:04.692Z,22.38
2018-07-23T19:57:35.270Z,22.27
2018-07-23T20:00:06.874Z,22.31
2018-07-23T20:02:40.152Z,22.24
2018-07-23T20:05:12.079Z,22.18
2018-07-23T20:07:42.980Z,22.07
2018-07-23T20:12:51.475Z,21.85
2018-07-23T20:15:23.896Z,21.71
2018-07-23T20:17:55.097Z,21.67
2018-07-23T20:20:28.721Z,21.66
2018-07-23T20:22:58.345Z,21.55
2018-07-23T20:25:29.813Z,21.49
2018-07-23T20:28:00.771Z,21.41
2018-07-23T20:30:32.350Z,21.40
2018-07-23T20:33:03.673Z,21.36
2018-07-23T20:35:35.633Z,21.31
2018-07-23T20:38:05.475Z,21.23
2018-07-23T20:40:38.695Z,21.27
2018-07-23T20:43:10.333Z,21.16
2018-07-23T20:45:41.144Z,21.18
2018-07-23T20:48:13.267Z,21.18
2018-07-23T20:50:44.849Z,21.19
2018-07-23T20:53:19.329Z,21.17
2018-07-23T20:55:56.383Z,21.10
2018-07-23T20:58:27.052Z,21.10
2018-07-23T21:00:58.172Z,21.04
2018-07-23T21:03:27.362Z,21.01
2018-07-23T21:05:57.010Z,20.95
2018-07-23T21:08:26.979Z,20.85
2018-07-23T21:10:57.104Z,20.89
2018-07-23T21:13:30.240Z,20.79
2018-07-23T21:16:01.641Z,20.84
2018-07-23T21:18:31.968Z,20.84
2018-07-23T21:21:03.828Z,20.77
2018-07-23T21:23:43.170Z,20.76
2018-07-23T21:26:14.290Z,20.77
2018-07-23T21:28:46.371Z,20.69
2018-07-23T21:31:19.388Z,20.61
2018-07-23T21:33:49.917Z,20.53
2018-07-23T21:36:24.621Z,20.40
2018-07-23T21:39:00.704Z,20.36
2018-07-23T21:41:32.144Z,20.29
2018-07-23T21:44:02.191Z,20.28
2018-07-23T21:46:34.218Z,20.18
2018-07-23T21:49:07.811Z,20.23
2018-07-23T21:51:38.826Z,20.19
2018-07-23T21:54:12.184Z,20.19
2018-07-23T21:56:43.153Z,20.04
2018-07-23T21:59:13.209Z,19.99
2018-07-23T22:01:51.192Z,19.99
2018-07-23T22:04:20.545Z,19.94
2018-07-23T22:06:52.701Z,19.90
2018-07-23T22:09:27.836Z,19.96
2018-07-23T22:12:01.908Z,19.93
2018-07-23T22:14:34.585Z,19.93
2018-07-23T22:17:05.569Z,19.89
2018-07-23T22:19:37.255Z,19.78
2018-07-23T22:22:11.465Z,19.73
2018-07-23T22:24:42.404Z,19.66
2018-07-23T22:27:15.616Z,19.61
2018-07-23T22:29:45.804Z,19.53
2018-07-23T22:32:14.901Z,19.48
2018-07-23T22:34:45.402Z,19.44
2018-07-23T22:37:18.113Z,19.44
2018-07-23T22:39:49.792Z,19.48
2018-07-23T22:42:26.004Z,19.46
2018-07-23T22:45:01.145Z,19.46
2018-07-23T22:47:33.004Z,19.38
2018-07-23T22:50:04.756Z,19.35
2018-07-23T22:52:34.548Z,19.28
2018-07-23T22:55:11.679Z,19.24
2018-07-23T22:57:48.842Z,19.21
2018-07-23T23:00:18.349Z,19.23
2018-07-23T23:02:48.548Z,19.17
2018-07-23T23:05:20.636Z,19.09
2018-07-23T23:07:51.228Z,19.06
2018-07-23T23:10:22.350Z,19.02
2018-07-23T23:12:51.508Z,19.01
2018-07-23T23:15:23.368Z,18.95
2018-07-23T23:17:56.336Z,18.96
2018-07-23T23:20:28.577Z,18.99
2018-07-23T23:23:01.039Z,18.88
2018-07-23T23:25:32.472Z,18.86
2018-07-23T23:28:04.517Z,18.77
2018-07-23T23:30:38.469Z,18.79
2018-07-23T23:33:21.820Z,18.79
2018-07-23T23:35:53.593Z,18.71
2018-07-23T23:38:27.549Z,18.67
2018-07-23T23:40:58.048Z,18.65
2018-07-23T23:43:28.551Z,18.65
2018-07-23T23:45:59.722Z,18.61
2018-07-23T23:55:17.957Z,18.45
2018-07-23T23:57:49.873Z,18.48
